sensor_id;sensor_type;location;lat;lon;timestamp;pressure;altitude;pressure_sealevel;temperature;humidity
71573;BME280;59408;51.032;9.410;2023-02-14T00:02:27;101035.53;;;-1.83;100.00
71573;BME280;59408;51.032;9.410;2023-02-14T00:04:54;101032.25;;;-1.85;100.00
71573;BME280;59408;51.032;9.410;2023-02-14T00:07:20;101031.63;;;-1.87;100.00
71573;BME280;59408;51.032;9.410;2023-02-14T00:09:47;101031.63;;;-1.87;100.00
71573;BME280;59408;51.032;9.410;2023-02-14T00:12:14;101031.22;;;-1.91;100.00
71573;BME280;59408;51.032;9.410;2023-02-14T00:14:40;101027.75;;;-1.91;100.00
71573;BME280;59408;51.032;9.410;2023-02-14T00:17:07;101027.13;;;-1.93;100.00
71573;BME280;59408;51.032;9.410;2023-02-14T00:19:35;101027.53;;;-1.96;100.00
71573;BME280;59408;51.032;9.410;2023-02-14T00:22:02;101017.25;;;-1.99;100.00
71573;BME280;59408;51.032;9.410;2023-02-14T00:24:30;101023.03;;;-2.02;100.00
71573;BME280;59408;51.032;9.410;2023-02-14T00:26:56;101019.94;;;-2.06;100.00
71573;BME280;59408;51.032;9.410;2023-02-14T00:29:25;101022.81;;;-2.07;100.00
71573;BME280;59408;51.032;9.410;2023-02-14T00:31:52;101019.53;;;-2.09;100.00
71573;BME280;59408;51.032;9.410;2023-02-14T00:34:19;101017.88;;;-2.10;100.00
71573;BME280;59408;51.032;9.410;2023-02-14T00:36:47;101028.78;;;-2.12;100.00
71573;BME280;59408;51.032;9.410;2023-02-14T00:39:14;101021.78;;;-2.13;100.00
71573;BME280;59408;51.032;9.410;2023-02-14T00:41:42;101027.34;;;-2.15;100.00
71573;BME280;59408;51.032;9.410;2023-02-14T00:44:09;101030.22;;;-2.16;100.00
71573;BME280;59408;51.032;9.410;2023-02-14T00:46:37;101034.13;;;-2.19;100.00
71573;BME280;59408;51.032;9.410;2023-02-14T00:49:03;101034.53;;;-2.15;100.00
71573;BME280;59408;51.032;9.410;2023-02-14T00:51:30;101037.84;;;-2.20;100.00
71573;BME280;59408;51.032;9.410;2023-02-14T00:53:58;101035.75;;;-2.24;100.00
71573;BME280;59408;51.032;9.410;2023-02-14T00:56:25;101036.16;;;-2.27;100.00
71573;BME280;59408;51.032;9.410;2023-02-14T00:58:52;101035.97;;;-2.32;100.00
71573;BME280;59408;51.032;9.410;2023-02-14T01:01:19;101040.06;;;-2.36;100.00
71573;BME280;59408;51.032;9.410;2023-02-14T01:03:46;101050.56;;;-2.41;100.00
71573;BME280;59408;51.032;9.410;2023-02-14T01:06:13;101047.47;;;-2.45;100.00
71573;BME280;59408;51.032;9.410;2023-02-14T01:08:40;101046.63;;;-2.45;100.00
71573;BME280;59408;51.032;9.410;2023-02-14T01:11:10;101042.56;;;-2.48;100.00
71573;BME280;59408;51.032;9.410;2023-02-14T01:13:37;101039.88;;;-2.48;100.00
71573;BME280;59408;51.032;9.410;2023-02-14T01:16:06;101038.22;;;-2.49;100.00
71573;BME280;59408;51.032;9.410;2023-02-14T01:18:34;101041.72;;;-2.48;100.00
71573;BME280;59408;51.032;9.410;2023-02-14T01:21:12;101033.28;;;-2.45;100.00
71573;BME280;59408;51.032;9.410;2023-02-14T01:23:39;101032.50;;;-2.46;100.00
71573;BME280;59408;51.032;9.410;2023-02-14T01:26:06;101026.72;;;-2.49;100.00
71573;BME280;59408;51.032;9.410;2023-02-14T01:28:35;101030.00;;;-2.54;100.00
71573;BME280;59408;51.032;9.410;2023-02-14T01:31:06;101033.91;;;-2.57;100.00
71573;BME280;59408;51.032;9.410;2023-02-14T01:33:33;101039.66;;;-2.60;100.00
71573;BME280;59408;51.032;9.410;2023-02-14T01:36:00;101046.22;;;-2.62;100.00
71573;BME280;59408;51.032;9.410;2023-02-14T01:38:27;101039.44;;;-2.65;100.00
71573;BME280;59408;51.032;9.410;2023-02-14T01:40:53;101049.31;;;-2.65;100.00
71573;BME280;59408;51.032;9.410;2023-02-14T01:43:20;101038.19;;;-2.69;100.00
71573;BME280;59408;51.032;9.410;2023-02-14T01:45:48;101049.06;;;-2.70;100.00
71573;BME280;59408;51.032;9.410;2023-02-14T01:48:16;101037.75;;;-2.72;100.00
71573;BME280;59408;51.032;9.410;2023-02-14T01:50:45;101033.25;;;-2.72;100.00
71573;BME280;59408;51.032;9.410;2023-02-14T01:53:18;101041.25;;;-2.72;100.00
71573;BME280;59408;51.032;9.410;2023-02-14T01:55:50;101042.72;;;-2.69;100.00
71573;BME280;59408;51.032;9.410;2023-02-14T01:58:20;101040.66;;;-2.74;100.00
71573;BME280;59408;51.032;9.410;2023-02-14T02:00:50;101035.91;;;-2.78;100.00
71573;BME280;59408;51.032;9.410;2023-02-14T02:03:18;101038.38;;;-2.83;100.00
71573;BME280;59408;51.032;9.410;2023-02-14T02:05:47;101036.09;;;-2.86;100.00
71573;BME280;59408;51.032;9.410;2023-02-14T02:08:16;101028.72;;;-2.84;100.00
71573;BME280;59408;51.032;9.410;2023-02-14T02:10:43;101033.03;;;-2.83;100.00
71573;BME280;59408;51.032;9.410;2023-02-14T02:13:15;101019.88;;;-2.85;100.00
71573;BME280;59408;51.032;9.410;2023-02-14T02:15:52;101019.66;;;-2.90;100.00
71573;BME280;59408;51.032;9.410;2023-02-14T02:18:26;101020.06;;;-2.93;100.00
71573;BME280;59408;51.032;9.410;2023-02-14T02:21:20;101023.34;;;-2.91;100.00
71573;BME280;59408;51.032;9.410;2023-02-14T02:24:04;101025.81;;;-2.96;100.00
71573;BME280;59408;51.032;9.410;2023-02-14T02:26:58;101021.50;;;-2.97;100.00
71573;BME280;59408;51.032;9.410;2023-02-14T02:35:38;101010.81;;;-2.97;100.00
71573;BME280;59408;51.032;9.410;2023-02-14T02:38:17;101007.75;;;-3.01;100.00
71573;BME280;59408;51.032;9.410;2023-02-14T02:40:53;101002.59;;;-3.02;100.00
71573;BME280;59408;51.032;9.410;2023-02-14T02:43:36;101012.47;;;-3.03;100.00
71573;BME280;59408;51.032;9.410;2023-02-14T02:46:10;101011.19;;;-3.07;100.00
71573;BME280;59408;51.032;9.410;2023-02-14T02:48:45;101014.88;;;-3.08;100.00
71573;BME280;59408;51.032;9.410;2023-02-14T02:51:18;101012.41;;;-3.09;100.00
71573;BME280;59408;51.032;9.410;2023-02-14T02:53:51;101003.81;;;-3.11;100.00
71573;BME280;59408;51.032;9.410;2023-02-14T02:56:23;101010.56;;;-3.15;100.00
71573;BME280;59408;51.032;9.410;2023-02-14T02:58:54;101005.41;;;-3.17;100.00
71573;BME280;59408;51.032;9.410;2023-02-14T03:01:23;101000.28;;;-3.18;100.00
71573;BME280;59408;51.032;9.410;2023-02-14T03:03:56;100998.66;;;-3.19;100.00
71573;BME280;59408;51.032;9.410;2023-02-14T03:06:25;100991.06;;;-3.16;100.00
71573;BME280;59408;51.032;9.410;2023-02-14T03:08:52;100990.41;;;-3.18;100.00
71573;BME280;59408;51.032;9.410;2023-02-14T03:11:19;100988.19;;;-3.21;100.00
71573;BME280;59408;51.032;9.410;2023-02-14T03:13:57;100983.66;;;-3.20;100.00
71573;BME280;59408;51.032;9.410;2023-02-14T03:19:30;100988.38;;;-3.22;100.00
71573;BME280;59408;51.032;9.410;2023-02-14T03:22:07;100985.06;;;-3.24;100.00
71573;BME280;59408;51.032;9.410;2023-02-14T03:24:43;100987.34;;;-3.28;100.00
71573;BME280;59408;51.032;9.410;2023-02-14T03:27:15;100982.59;;;-3.33;100.00
71573;BME280;59408;51.032;9.410;2023-02-14T03:29:51;100983.81;;;-3.35;100.00
71573;BME280;59408;51.032;9.410;2023-02-14T03:32:26;100986.88;;;-3.38;100.00
71573;BME280;59408;51.032;9.410;2023-02-14T03:35:00;100987.28;;;-3.41;100.00
71573;BME280;59408;51.032;9.410;2023-02-14T03:37:35;100989.94;;;-3.41;100.00
71573;BME280;59408;51.032;9.410;2023-02-14T03:40:07;100982.56;;;-3.39;100.00
71573;BME280;59408;51.032;9.410;2023-02-14T03:42:40;100979.91;;;-3.39;100.00
71573;BME280;59408;51.032;9.410;2023-02-14T03:45:12;100976.81;;;-3.43;100.00
71573;BME280;59408;51.032;9.410;2023-02-14T03:47:42;100982.78;;;-3.41;100.00
71573;BME280;59408;51.032;9.410;2023-02-14T03:50:13;100989.34;;;-3.37;100.00
71573;BME280;59408;51.032;9.410;2023-02-14T03:52:43;100977.25;;;-3.39;100.00
71573;BME280;59408;51.032;9.410;2023-02-14T03:55:14;100979.91;;;-3.39;100.00
71573;BME280;59408;51.032;9.410;2023-02-14T03:57:50;100975.41;;;-3.39;100.00
71573;BME280;59408;51.032;9.410;2023-02-14T04:00:19;100969.44;;;-3.41;100.00
71573;BME280;59408;51.032;9.410;2023-02-14T04:02:47;100970.25;;;-3.40;100.00
71573;BME280;59408;51.032;9.410;2023-02-14T04:05:17;100975.78;;;-3.42;100.00
71573;BME280;59408;51.032;9.410;2023-02-14T04:07:48;100972.28;;;-3.42;100.00
71573;BME280;59408;51.032;9.410;2023-02-14T04:10:16;100973.31;;;-3.43;100.00
71573;BME280;59408;51.032;9.410;2023-02-14T04:12:43;100966.31;;;-3.44;100.00
71573;BME280;59408;51.032;9.410;2023-02-14T04:15:11;100963.84;;;-3.46;100.00
71573;BME280;59408;51.032;9.410;2023-02-14T04:17:38;100968.41;;;-3.46;100.00
71573;BME280;59408;51.032;9.410;2023-02-14T04:20:05;100966.94;;;-3.49;100.00
71573;BME280;59408;51.032;9.410;2023-02-14T04:22:32;100962.81;;;-3.51;100.00
71573;BME280;59408;51.032;9.410;2023-02-14T04:25:00;100958.09;;;-3.56;100.00
71573;BME280;59408;51.032;9.410;2023-02-14T04:27:27;100959.69;;;-3.61;100.00
71573;BME280;59408;51.032;9.410;2023-02-14T04:29:53;100959.06;;;-3.64;100.00
71573;BME280;59408;51.032;9.410;2023-02-14T04:32:21;100952.53;;;-3.61;100.00
71573;BME280;59408;51.032;9.410;2023-02-14T04:34:48;100961.78;;;-3.57;100.00
71573;BME280;59408;51.032;9.410;2023-02-14T04:37:17;100959.50;;;-3.60;100.00
71573;BME280;59408;51.032;9.410;2023-02-14T04:39:44;100961.97;;;-3.65;100.00
71573;BME280;59408;51.032;9.410;2023-02-14T04:42:12;100968.50;;;-3.68;100.00
71573;BME280;59408;51.032;9.410;2023-02-14T04:44:39;100963.56;;;-3.71;100.00
71573;BME280;59408;51.032;9.410;2023-02-14T04:47:06;100968.06;;;-3.71;100.00
71573;BME280;59408;51.032;9.410;2023-02-14T04:49:33;100958.84;;;-3.69;100.00
71573;BME280;59408;51.032;9.410;2023-02-14T04:52:00;100961.31;;;-3.67;100.00
71573;BME280;59408;51.032;9.410;2023-02-14T04:54:27;100967.47;;;-3.67;100.00
71573;BME280;59408;51.032;9.410;2023-02-14T04:56:53;100962.78;;;-3.65;100.00
71573;BME280;59408;51.032;9.410;2023-02-14T04:59:21;100965.22;;;-3.70;100.00
71573;BME280;59408;51.032;9.410;2023-02-14T05:01:50;100958.22;;;-3.71;100.00
71573;BME280;59408;51.032;9.410;2023-02-14T05:04:17;100963.16;;;-3.68;100.00
71573;BME280;59408;51.032;9.410;2023-02-14T05:06:44;100962.16;;;-3.67;100.00
71573;BME280;59408;51.032;9.410;2023-02-14T05:09:10;100949.44;;;-3.65;100.00
71573;BME280;59408;51.032;9.410;2023-02-14T05:11:37;100956.84;;;-3.60;100.00
71573;BME280;59408;51.032;9.410;2023-02-14T05:14:04;100960.94;;;-3.64;100.00
71573;BME280;59408;51.032;9.410;2023-02-14T05:16:32;100952.31;;;-3.66;100.00
71573;BME280;59408;51.032;9.410;2023-02-14T05:18:59;100949.41;;;-3.71;100.00
71573;BME280;59408;51.032;9.410;2023-02-14T05:21:25;100956.16;;;-3.75;100.00
71573;BME280;59408;51.032;9.410;2023-02-14T05:23:52;100954.91;;;-3.79;100.00
71573;BME280;59408;51.032;9.410;2023-02-14T05:26:19;100961.03;;;-3.85;100.00
71573;BME280;59408;51.032;9.410;2023-02-14T05:28:45;100956.91;;;-3.88;100.00
71573;BME280;59408;51.032;9.410;2023-02-14T05:31:12;100953.84;;;-3.91;100.00
71573;BME280;59408;51.032;9.410;2023-02-14T05:33:40;100957.06;;;-3.96;100.00
71573;BME280;59408;51.032;9.410;2023-02-14T05:36:07;100951.13;;;-3.98;100.00
71573;BME280;59408;51.032;9.410;2023-02-14T05:38:34;100949.28;;;-3.97;100.00
71573;BME280;59408;51.032;9.410;2023-02-14T05:41:00;100953.41;;;-3.95;100.00
71573;BME280;59408;51.032;9.410;2023-02-14T05:43:27;100947.88;;;-3.93;100.00
71573;BME280;59408;51.032;9.410;2023-02-14T05:45:54;100942.53;;;-3.93;100.00
71573;BME280;59408;51.032;9.410;2023-02-14T05:48:21;100947.44;;;-3.97;100.00
71573;BME280;59408;51.032;9.410;2023-02-14T05:50:49;100947.69;;;-3.92;100.00
71573;BME280;59408;51.032;9.410;2023-02-14T05:53:15;100952.66;;;-3.82;100.00
71573;BME280;59408;51.032;9.410;2023-02-14T05:55:42;100953.69;;;-3.77;100.00
71573;BME280;59408;51.032;9.410;2023-02-14T05:58:09;100944.03;;;-3.78;100.00
71573;BME280;59408;51.032;9.410;2023-02-14T06:00:35;100951.03;;;-3.77;100.00
71573;BME280;59408;51.032;9.410;2023-02-14T06:03:04;100941.41;;;-3.71;100.00
71573;BME280;59408;51.032;9.410;2023-02-14T06:05:30;100953.09;;;-3.72;100.00
71573;BME280;59408;51.032;9.410;2023-02-14T06:07:58;100959.22;;;-3.78;100.00
71573;BME280;59408;51.032;9.410;2023-02-14T06:10:25;100961.84;;;-3.85;100.00
71573;BME280;59408;51.032;9.410;2023-02-14T06:12:52;100966.13;;;-3.90;100.00
71573;BME280;59408;51.032;9.410;2023-02-14T06:15:20;100980.28;;;-3.90;100.00
71573;BME280;59408;51.032;9.410;2023-02-14T06:17:50;100978.03;;;-3.86;100.00
71573;BME280;59408;51.032;9.410;2023-02-14T06:20:16;100974.75;;;-3.88;100.00
71573;BME280;59408;51.032;9.410;2023-02-14T06:22:43;100981.09;;;-3.89;100.00
71573;BME280;59408;51.032;9.410;2023-02-14T06:25:11;100976.41;;;-3.87;100.00
71573;BME280;59408;51.032;9.410;2023-02-14T06:27:38;100979.84;;;-3.93;100.00
71573;BME280;59408;51.032;9.410;2023-02-14T06:30:06;100979.00;;;-4.00;100.00
71573;BME280;59408;51.032;9.410;2023-02-14T06:32:33;100973.88;;;-4.02;100.00
71573;BME280;59408;51.032;9.410;2023-02-14T06:35:03;100977.09;;;-4.07;100.00
71573;BME280;59408;51.032;9.410;2023-02-14T06:37:31;100984.69;;;-4.10;100.00
71573;BME280;59408;51.032;9.410;2023-02-14T06:39:58;100984.22;;;-4.14;100.00
71573;BME280;59408;51.032;9.410;2023-02-14T06:42:26;100987.09;;;-4.15;100.00
71573;BME280;59408;51.032;9.410;2023-02-14T06:44:52;100986.66;;;-4.19;100.00
71573;BME280;59408;51.032;9.410;2023-02-14T06:47:19;100994.22;;;-4.22;100.00
71573;BME280;59408;51.032;9.410;2023-02-14T06:49:46;100993.78;;;-4.26;100.00
71573;BME280;59408;51.032;9.410;2023-02-14T06:52:12;100992.94;;;-4.26;100.00
71573;BME280;59408;51.032;9.410;2023-02-14T06:54:40;100987.84;;;-4.28;100.00
71573;BME280;59408;51.032;9.410;2023-02-14T06:57:07;100985.16;;;-4.28;100.00
71573;BME280;59408;51.032;9.410;2023-02-14T06:59:35;100985.16;;;-4.28;100.00
71573;BME280;59408;51.032;9.410;2023-02-14T07:02:02;100985.97;;;-4.27;100.00
71573;BME280;59408;51.032;9.410;2023-02-14T07:04:28;100986.41;;;-4.24;100.00
71573;BME280;59408;51.032;9.410;2023-02-14T07:06:55;100989.91;;;-4.23;100.00
71573;BME280;59408;51.032;9.410;2023-02-14T07:09:22;100981.34;;;-4.19;100.00
71573;BME280;59408;51.032;9.410;2023-02-14T07:11:49;100989.75;;;-4.15;100.00
71573;BME280;59408;51.032;9.410;2023-02-14T07:14:16;100988.53;;;-4.13;100.00
71573;BME280;59408;51.032;9.410;2023-02-14T07:16:44;100988.34;;;-4.11;100.00
71573;BME280;59408;51.032;9.410;2023-02-14T07:19:10;100994.75;;;-4.06;100.00
71573;BME280;59408;51.032;9.410;2023-02-14T07:21:37;100986.16;;;-4.01;100.00
71573;BME280;59408;51.032;9.410;2023-02-14T07:24:04;100977.38;;;-3.95;100.00
71573;BME280;59408;51.032;9.410;2023-02-14T07:26:30;100980.28;;;-3.90;100.00
71573;BME280;59408;51.032;9.410;2023-02-14T07:28:57;100970.03;;;-3.86;100.00
71573;BME280;59408;51.032;9.410;2023-02-14T07:31:23;100971.72;;;-3.79;100.00
71573;BME280;59408;51.032;9.410;2023-02-14T07:33:52;100965.41;;;-3.71;100.00
71573;BME280;59408;51.032;9.410;2023-02-14T07:36:18;100969.13;;;-3.66;100.00
71573;BME280;59408;51.032;9.410;2023-02-14T07:38:45;100968.34;;;-3.59;100.00
71573;BME280;59408;51.032;9.410;2023-02-14T07:41:11;100969.81;;;-3.50;100.00
71573;BME280;59408;51.032;9.410;2023-02-14T07:43:38;100964.47;;;-3.44;100.00
71573;BME280;59408;51.032;9.410;2023-02-14T07:46:05;100962.88;;;-3.38;100.00
71573;BME280;59408;51.032;9.410;2023-02-14T07:48:32;100966.00;;;-3.28;100.00
71573;BME280;59408;51.032;9.410;2023-02-14T07:51:01;100958.81;;;-3.21;100.00
71573;BME280;59408;51.032;9.410;2023-02-14T07:53:28;100962.94;;;-3.12;100.00
71573;BME280;59408;51.032;9.410;2023-02-14T07:55:55;100967.91;;;-3.02;100.00
71573;BME280;59408;51.032;9.410;2023-02-14T07:58:22;100964.63;;;-2.91;100.00
71573;BME280;59408;51.032;9.410;2023-02-14T08:00:48;100966.88;;;-2.81;100.00
71573;BME280;59408;51.032;9.410;2023-02-14T08:03:15;100967.50;;;-2.73;100.00
71573;BME280;59408;51.032;9.410;2023-02-14T08:05:43;100957.66;;;-2.59;100.00
71573;BME280;59408;51.032;9.410;2023-02-14T08:08:11;100959.28;;;-2.45;100.00
71573;BME280;59408;51.032;9.410;2023-02-14T08:10:38;100961.78;;;-2.37;100.00
71573;BME280;59408;51.032;9.410;2023-02-14T08:13:04;100958.47;;;-2.26;100.00
71573;BME280;59408;51.032;9.410;2023-02-14T08:15:33;100965.84;;;-2.15;100.00
71573;BME280;59408;51.032;9.410;2023-02-14T08:18:00;100967.50;;;-2.00;100.00
71573;BME280;59408;51.032;9.410;2023-02-14T08:20:26;100959.41;;;-1.87;100.00
71573;BME280;59408;51.032;9.410;2023-02-14T08:22:53;100963.72;;;-1.73;100.00
71573;BME280;59408;51.032;9.410;2023-02-14T08:25:21;100967.56;;;-1.62;100.00
71573;BME280;59408;51.032;9.410;2023-02-14T08:27:47;100972.66;;;-1.48;100.00
71573;BME280;59408;51.032;9.410;2023-02-14T08:30:14;100962.75;;;-1.41;100.00
71573;BME280;59408;51.032;9.410;2023-02-14T08:32:41;100971.53;;;-1.27;100.00
71573;BME280;59408;51.032;9.410;2023-02-14T08:35:08;100964.69;;;-1.16;100.00
71573;BME280;59408;51.032;9.410;2023-02-14T08:37:34;100956.78;;;-1.05;100.00
71573;BME280;59408;51.032;9.410;2023-02-14T08:40:01;100960.47;;;-0.99;100.00
71573;BME280;59408;51.032;9.410;2023-02-14T08:42:29;100951.94;;;-0.89;100.00
71573;BME280;59408;51.032;9.410;2023-02-14T08:44:56;100957.66;;;-0.79;100.00
71573;BME280;59408;51.032;9.410;2023-02-14T08:47:22;100951.81;;;-0.70;100.00
71573;BME280;59408;51.032;9.410;2023-02-14T08:49:49;100952.38;;;-0.61;100.00
71573;BME280;59408;51.032;9.410;2023-02-14T08:52:16;100950.41;;;-0.47;100.00
71573;BME280;59408;51.032;9.410;2023-02-14T08:54:42;100947.22;;;-0.38;100.00
71573;BME280;59408;51.032;9.410;2023-02-14T08:57:09;100948.81;;;-0.30;100.00
71573;BME280;59408;51.032;9.410;2023-02-14T08:59:37;100936.97;;;-0.22;100.00
71573;BME280;59408;51.032;9.410;2023-02-14T09:02:04;100947.34;;;-0.08;100.00
71573;BME280;59408;51.032;9.410;2023-02-14T09:04:33;100943.94;;;0.03;100.00
71573;BME280;59408;51.032;9.410;2023-02-14T09:07:00;100938.66;;;0.15;100.00
71573;BME280;59408;51.032;9.410;2023-02-14T09:09:26;100928.22;;;0.25;100.00
71573;BME280;59408;51.032;9.410;2023-02-14T09:11:53;100931.41;;;0.34;100.00
71573;BME280;59408;51.032;9.410;2023-02-14T09:14:20;100930.41;;;0.46;100.00
71573;BME280;59408;51.032;9.410;2023-02-14T09:16:48;100920.19;;;0.55;100.00
71573;BME280;59408;51.032;9.410;2023-02-14T09:19:15;100918.97;;;0.69;100.00
71573;BME280;59408;51.032;9.410;2023-02-14T09:21:41;100916.41;;;0.74;100.00
71573;BME280;59408;51.032;9.410;2023-02-14T09:24:08;100917.06;;;0.88;100.00
71573;BME280;59408;51.032;9.410;2023-02-14T09:26:35;100909.75;;;1.07;100.00
71573;BME280;59408;51.032;9.410;2023-02-14T09:29:01;100908.84;;;1.24;100.00
71573;BME280;59408;51.032;9.410;2023-02-14T09:31:28;100911.09;;;1.39;100.00
71573;BME280;59408;51.032;9.410;2023-02-14T09:33:56;100910.38;;;1.55;100.00
71573;BME280;59408;51.032;9.410;2023-02-14T09:36:23;100917.06;;;1.64;100.00
71573;BME280;59408;51.032;9.410;2023-02-14T09:38:49;100916.25;;;1.76;100.00
71573;BME280;59408;51.032;9.410;2023-02-14T09:41:39;100913.66;;;1.92;99.26
71573;BME280;59408;51.032;9.410;2023-02-14T09:44:14;100913.88;;;2.03;97.97
71573;BME280;59408;51.032;9.410;2023-02-14T09:46:49;100919.09;;;2.21;98.69
71573;BME280;59408;51.032;9.410;2023-02-14T09:49:28;100922.75;;;2.26;96.58
71573;BME280;59408;51.032;9.410;2023-02-14T09:51:57;100922.69;;;2.38;97.17
71573;BME280;59408;51.032;9.410;2023-02-14T09:54:28;100916.38;;;2.44;96.74
71573;BME280;59408;51.032;9.410;2023-02-14T09:56:57;100916.75;;;2.64;96.01
71573;BME280;59408;51.032;9.410;2023-02-14T09:59:30;100917.00;;;2.63;95.28
71573;BME280;59408;51.032;9.410;2023-02-14T10:02:08;100917.88;;;2.80;94.52
71573;BME280;59408;51.032;9.410;2023-02-14T10:04:41;100918.56;;;3.04;94.08
71573;BME280;59408;51.032;9.410;2023-02-14T10:07:17;100918.75;;;3.31;93.67
71573;BME280;59408;51.032;9.410;2023-02-14T10:09:54;100915.66;;;3.39;91.20
71573;BME280;59408;51.032;9.410;2023-02-14T10:12:28;100915.34;;;3.52;91.20
71573;BME280;59408;51.032;9.410;2023-02-14T10:14:59;100916.63;;;3.66;91.97
71573;BME280;59408;51.032;9.410;2023-02-14T10:17:35;100909.66;;;3.87;90.09
71573;BME280;59408;51.032;9.410;2023-02-14T10:20:15;100918.16;;;4.17;89.57
71573;BME280;59408;51.032;9.410;2023-02-14T10:22:49;100917.03;;;4.35;88.54
71573;BME280;59408;51.032;9.410;2023-02-14T10:25:20;100912.31;;;4.25;88.07
71573;BME280;59408;51.032;9.410;2023-02-14T10:27:48;100915.28;;;4.46;87.65
71573;BME280;59408;51.032;9.410;2023-02-14T10:30:16;100914.75;;;4.71;87.70
71573;BME280;59408;51.032;9.410;2023-02-14T10:32:45;100915.56;;;4.71;87.81
71573;BME280;59408;51.032;9.410;2023-02-14T10:35:23;100909.19;;;4.82;87.42
71573;BME280;59408;51.032;9.410;2023-02-14T10:38:05;100909.13;;;4.77;86.39
71573;BME280;59408;51.032;9.410;2023-02-14T10:40:47;100912.28;;;4.91;87.50
71573;BME280;59408;51.032;9.410;2023-02-14T10:43:26;100912.31;;;5.23;85.53
71573;BME280;59408;51.032;9.410;2023-02-14T10:46:03;100904.09;;;5.13;85.54
71573;BME280;59408;51.032;9.410;2023-02-14T10:48:44;100908.69;;;5.12;85.32
71573;BME280;59408;51.032;9.410;2023-02-14T10:51:17;100898.28;;;5.26;85.38
71573;BME280;59408;51.032;9.410;2023-02-14T10:53:56;100901.75;;;5.21;86.07
71573;BME280;59408;51.032;9.410;2023-02-14T10:56:31;100893.72;;;5.31;85.11
71573;BME280;59408;51.032;9.410;2023-02-14T10:59:13;100892.56;;;5.59;85.14
71573;BME280;59408;51.032;9.410;2023-02-14T11:01:41;100899.94;;;5.64;84.54
71573;BME280;59408;51.032;9.410;2023-02-14T11:04:09;100892.47;;;5.86;85.16
71573;BME280;59408;51.032;9.410;2023-02-14T11:06:38;100894.47;;;6.01;83.75
71573;BME280;59408;51.032;9.410;2023-02-14T11:09:05;100898.84;;;6.12;83.35
71573;BME280;59408;51.032;9.410;2023-02-14T11:11:36;100900.50;;;6.18;84.12
71573;BME280;59408;51.032;9.410;2023-02-14T11:14:19;100898.38;;;5.78;83.25
71573;BME280;59408;51.032;9.410;2023-02-14T11:16:47;100890.91;;;5.53;83.93
71573;BME280;59408;51.032;9.410;2023-02-14T11:19:19;100890.75;;;5.70;83.53
71573;BME280;59408;51.032;9.410;2023-02-14T11:21:49;100889.50;;;5.46;83.75
71573;BME280;59408;51.032;9.410;2023-02-14T11:24:18;100881.91;;;5.43;84.99
71573;BME280;59408;51.032;9.410;2023-02-14T11:26:46;100883.22;;;5.40;84.60
71573;BME280;59408;51.032;9.410;2023-02-14T11:29:15;100882.41;;;5.39;84.75
71573;BME280;59408;51.032;9.410;2023-02-14T11:31:46;100878.47;;;5.20;85.83
71573;BME280;59408;51.032;9.410;2023-02-14T11:34:23;100880.69;;;5.28;84.68
71573;BME280;59408;51.032;9.410;2023-02-14T11:36:55;100870.44;;;5.30;85.12
71573;BME280;59408;51.032;9.410;2023-02-14T11:39:27;100873.97;;;5.31;85.00
71573;BME280;59408;51.032;9.410;2023-02-14T11:41:57;100870.91;;;5.54;84.73
71573;BME280;59408;51.032;9.410;2023-02-14T11:44:25;100873.38;;;5.61;85.65
71573;BME280;59408;51.032;9.410;2023-02-14T11:46:53;100863.91;;;5.63;83.91
71573;BME280;59408;51.032;9.410;2023-02-14T11:49:29;100868.78;;;5.66;83.85
71573;BME280;59408;51.032;9.410;2023-02-14T11:51:59;100869.13;;;5.75;84.09
71573;BME280;59408;51.032;9.410;2023-02-14T11:54:33;100859.78;;;5.98;83.59
71573;BME280;59408;51.032;9.410;2023-02-14T11:57:04;100858.09;;;5.87;81.91
71573;BME280;59408;51.032;9.410;2023-02-14T11:59:36;100863.50;;;5.82;83.08
71573;BME280;59408;51.032;9.410;2023-02-14T12:02:13;100852.16;;;5.95;82.75
71573;BME280;59408;51.032;9.410;2023-02-14T12:04:43;100857.13;;;5.61;82.64
71573;BME280;59408;51.032;9.410;2023-02-14T12:07:19;100860.34;;;5.58;82.33
71573;BME280;59408;51.032;9.410;2023-02-14T12:09:47;100852.09;;;5.37;83.47
71573;BME280;59408;51.032;9.410;2023-02-14T12:12:29;100852.22;;;5.16;84.06
71573;BME280;59408;51.032;9.410;2023-02-14T12:15:19;100855.19;;;5.19;84.19
71573;BME280;59408;51.032;9.410;2023-02-14T12:17:47;100854.59;;;5.44;85.83
71573;BME280;59408;51.032;9.410;2023-02-14T12:20:21;100850.06;;;5.55;82.25
71573;BME280;59408;51.032;9.410;2023-02-14T12:22:56;100847.22;;;5.39;82.71
71573;BME280;59408;51.032;9.410;2023-02-14T12:25:34;100837.88;;;5.15;83.55
71573;BME280;59408;51.032;9.410;2023-02-14T12:28:08;100840.41;;;4.95;84.05
71573;BME280;59408;51.032;9.410;2023-02-14T12:30:38;100824.72;;;4.70;86.53
71573;BME280;59408;51.032;9.410;2023-02-14T12:33:15;100819.94;;;4.77;86.45
71573;BME280;59408;51.032;9.410;2023-02-14T12:35:48;100830.28;;;4.85;85.67
71573;BME280;59408;51.032;9.410;2023-02-14T12:38:24;100827.28;;;4.82;85.78
71573;BME280;59408;51.032;9.410;2023-02-14T12:41:03;100826.97;;;5.05;85.00
71573;BME280;59408;51.032;9.410;2023-02-14T12:43:44;100831.22;;;4.69;85.25
71573;BME280;59408;51.032;9.410;2023-02-14T12:46:20;100814.69;;;4.65;86.36
71573;BME280;59408;51.032;9.410;2023-02-14T12:49:03;100822.53;;;4.40;87.09
71573;BME280;59408;51.032;9.410;2023-02-14T12:51:39;100810.66;;;4.68;86.52
71573;BME280;59408;51.032;9.410;2023-02-14T12:54:25;100816.13;;;5.37;84.58
71573;BME280;59408;51.032;9.410;2023-02-14T12:56:58;100807.94;;;5.27;83.31
71573;BME280;59408;51.032;9.410;2023-02-14T12:59:35;100810.41;;;4.70;85.00
71573;BME280;59408;51.032;9.410;2023-02-14T13:02:26;100800.88;;;4.89;85.34
71573;BME280;59408;51.032;9.410;2023-02-14T13:05:07;100803.09;;;4.97;85.01
71573;BME280;59408;51.032;9.410;2023-02-14T13:14:44;100790.31;;;5.24;83.23
71573;BME280;59408;51.032;9.410;2023-02-14T13:17:24;100787.09;;;5.27;84.59